createdAt,value
2017-08-29T00:00:00.981Z,71.30
2017-08-29T00:02:27.978Z,71.30
2017-08-29T00:04:54.904Z,71.40
2017-08-29T00:07:22.593Z,70.90
2017-08-29T00:09:49.656Z,70.90
2017-08-29T00:12:16.561Z,70.90
2017-08-29T00:14:44.285Z,71.50
2017-08-29T00:17:11.282Z,71.50
2017-08-29T00:19:39.572Z,72.20
2017-08-29T00:22:06.590Z,72.10
2017-08-29T00:24:34.258Z,73.00
2017-08-29T00:27:01.931Z,72.90
2017-08-29T00:29:29.639Z,73.30
2017-08-29T00:31:56.620Z,73.30
2017-08-29T00:34:23.598Z,73.90
2017-08-29T00:36:50.549Z,75.10
2017-08-29T00:39:17.592Z,75.80
2017-08-29T00:41:44.569Z,76.10
2017-08-29T00:44:11.659Z,76.80
2017-08-29T00:46:38.636Z,77.30
2017-08-29T00:49:05.632Z,77.20
2017-08-29T00:51:32.728Z,77.50
2017-08-29T00:53:59.699Z,77.40
2017-08-29T00:56:26.737Z,77.80
2017-08-29T00:58:53.802Z,78.60
2017-08-29T01:01:20.833Z,79.00
2017-08-29T01:03:47.749Z,79.00
2017-08-29T01:06:15.570Z,78.50
2017-08-29T01:08:43.312Z,78.50
2017-08-29T01:11:10.361Z,78.10
2017-08-29T01:13:37.298Z,77.40
2017-08-29T01:16:04.293Z,77.30
2017-08-29T01:18:31.305Z,76.90
2017-08-29T01:20:58.307Z,76.50
2017-08-29T01:23:25.289Z,75.90
2017-08-29T01:25:52.363Z,75.70
2017-08-29T01:28:19.434Z,75.40
2017-08-29T01:30:46.488Z,75.10
2017-08-29T01:33:13.462Z,74.80
2017-08-29T01:35:41.328Z,74.20
2017-08-29T01:38:09.096Z,73.70
2017-08-29T01:40:36.885Z,73.70
2017-08-29T01:43:03.919Z,73.70
2017-08-29T01:45:31.726Z,73.70
2017-08-29T01:47:58.845Z,73.70
2017-08-29T01:50:25.892Z,73.40
2017-08-29T01:52:52.878Z,73.00
2017-08-29T01:55:19.988Z,72.70
2017-08-29T01:57:47.101Z,73.00
2017-08-29T02:00:14.107Z,72.80
2017-08-29T02:02:41.127Z,73.10
2017-08-29T02:05:08.896Z,74.10
2017-08-29T02:07:36.025Z,74.10
2017-08-29T02:10:03.809Z,74.50
2017-08-29T02:12:32.085Z,74.70
2017-08-29T02:14:59.075Z,74.60
2017-08-29T02:17:26.018Z,74.50
2017-08-29T02:19:52.938Z,74.50
2017-08-29T02:22:19.933Z,75.10
2017-08-29T02:24:46.883Z,75.60
2017-08-29T02:27:13.784Z,75.50
2017-08-29T02:29:40.794Z,75.30
2017-08-29T02:32:08.504Z,75.40
2017-08-29T02:34:35.433Z,75.30
2017-08-29T02:37:02.409Z,75.20
2017-08-29T02:39:29.349Z,75.00
2017-08-29T02:41:56.281Z,75.00
2017-08-29T02:44:23.336Z,74.80
2017-08-29T02:46:50.715Z,75.10
2017-08-29T02:49:17.592Z,75.20
2017-08-29T02:51:44.584Z,74.90
2017-08-29T02:54:11.485Z,75.10
2017-08-29T02:56:39.193Z,75.30
2017-08-29T02:59:06.185Z,74.80
2017-08-29T03:01:33.120Z,75.00
2017-08-29T03:04:00.064Z,74.70
2017-08-29T03:06:27.121Z,74.70
2017-08-29T03:08:54.088Z,74.70
2017-08-29T03:11:21.755Z,74.60
2017-08-29T03:13:49.530Z,74.70
2017-08-29T03:16:17.216Z,75.20
2017-08-29T03:18:44.221Z,75.10
2017-08-29T03:21:11.373Z,75.50
2017-08-29T03:23:38.468Z,76.20
2017-08-29T03:26:05.380Z,76.90
2017-08-29T03:28:33.111Z,77.80
2017-08-29T03:31:00.053Z,77.80
2017-08-29T03:33:26.995Z,77.80
2017-08-29T03:35:53.993Z,77.50
2017-08-29T03:38:21.633Z,78.70
2017-08-29T03:40:48.537Z,78.70
2017-08-29T03:43:15.611Z,79.30
2017-08-29T03:45:42.632Z,80.00
2017-08-29T03:48:09.556Z,80.10
2017-08-29T03:50:36.541Z,79.80
2017-08-29T03:53:03.524Z,79.50
2017-08-29T03:55:30.408Z,79.30
2017-08-29T03:57:57.404Z,79.00
2017-08-29T04:00:24.427Z,78.90
2017-08-29T04:02:51.692Z,78.80
2017-08-29T04:05:18.765Z,79.10
2017-08-29T04:07:45.849Z,79.00
2017-08-29T04:10:12.809Z,79.00
2017-08-29T04:12:39.714Z,78.60
2017-08-29T04:15:06.699Z,78.00
2017-08-29T04:17:33.670Z,77.40
2017-08-29T04:20:01.746Z,77.00
2017-08-29T04:22:28.800Z,76.70
2017-08-29T04:24:55.732Z,76.10
2017-08-29T04:27:22.793Z,75.90
2017-08-29T04:29:49.728Z,75.50
2017-08-29T04:32:17.636Z,75.10
2017-08-29T04:34:48.251Z,74.90
2017-08-29T04:37:15.500Z,74.60
2017-08-29T04:39:42.516Z,74.00
2017-08-29T04:42:09.478Z,73.80
2017-08-29T04:44:38.818Z,73.60
2017-08-29T04:50:20.047Z,73.60
2017-08-29T04:52:48.712Z,73.80
2017-08-29T04:55:29.286Z,73.30
2017-08-29T04:57:57.144Z,73.20
2017-08-29T05:00:24.456Z,73.20
2017-08-29T05:02:51.504Z,73.10
2017-08-29T05:05:18.507Z,73.20
2017-08-29T05:07:46.276Z,73.40
2017-08-29T05:10:13.295Z,73.40
2017-08-29T05:12:41.392Z,73.00
2017-08-29T05:15:09.119Z,72.40
2017-08-29T05:17:35.977Z,72.40
2017-08-29T05:20:02.989Z,71.90
2017-08-29T05:22:30.463Z,71.40
2017-08-29T05:24:57.383Z,71.60
2017-08-29T05:27:29.580Z,71.60
2017-08-29T05:29:56.451Z,71.60
2017-08-29T05:32:24.076Z,71.30
2017-08-29T05:34:51.023Z,71.20
2017-08-29T05:37:17.936Z,70.10
2017-08-29T05:39:44.805Z,70.70
2017-08-29T05:42:11.827Z,71.10
2017-08-29T05:44:38.708Z,70.70
2017-08-29T05:47:05.645Z,71.00
2017-08-29T05:49:32.641Z,71.60
2017-08-29T05:52:00.396Z,73.30
2017-08-29T05:54:27.302Z,73.30
2017-08-29T05:56:54.168Z,73.10
2017-08-29T05:59:21.119Z,73.00
2017-08-29T06:01:48.023Z,73.10
2017-08-29T06:04:15.124Z,73.10
2017-08-29T06:06:42.061Z,71.70
2017-08-29T06:09:09.012Z,71.40
2017-08-29T06:11:36.012Z,71.10
2017-08-29T06:14:02.985Z,71.90
2017-08-29T06:16:30.045Z,72.00
2017-08-29T06:18:57.003Z,72.10
2017-08-29T06:21:23.896Z,71.80
2017-08-29T06:23:50.900Z,72.00
2017-08-29T06:26:19.777Z,72.40
2017-08-29T06:28:49.604Z,72.90
2017-08-29T06:31:19.619Z,73.50
2017-08-29T06:33:47.640Z,74.40
2017-08-29T06:36:14.619Z,75.00
2017-08-29T06:38:41.537Z,74.10
2017-08-29T06:41:08.595Z,73.40
2017-08-29T06:43:35.457Z,70.70
2017-08-29T06:46:02.438Z,70.90
2017-08-29T06:48:29.354Z,71.10
2017-08-29T06:50:57.345Z,70.20
2017-08-29T06:53:24.271Z,68.90
2017-08-29T06:55:51.237Z,68.60
2017-08-29T06:58:18.837Z,68.00
2017-08-29T07:00:45.788Z,67.80
2017-08-29T07:03:12.720Z,65.70
2017-08-29T07:05:39.590Z,64.30
2017-08-29T07:08:06.607Z,64.60
2017-08-29T07:10:33.507Z,62.80
2017-08-29T07:13:00.486Z,62.40
2017-08-29T07:15:28.301Z,60.90
2017-08-29T07:17:55.188Z,60.90
2017-08-29T07:20:22.177Z,62.30
2017-08-29T07:22:49.080Z,64.50
2017-08-29T07:25:16.063Z,64.90
2017-08-29T07:27:42.941Z,64.10
2017-08-29T07:30:09.812Z,64.30
2017-08-29T07:32:36.760Z,60.50
2017-08-29T07:35:03.900Z,61.60
2017-08-29T07:37:30.831Z,62.60
2017-08-29T07:39:57.806Z,59.50
2017-08-29T07:42:24.832Z,59.00
2017-08-29T07:44:51.796Z,57.80
2017-08-29T07:47:18.781Z,56.80
2017-08-29T07:49:45.850Z,55.00
2017-08-29T07:52:12.764Z,48.60
2017-08-29T07:54:40.412Z,44.20
2017-08-29T07:57:08.148Z,44.60
2017-08-29T07:59:35.110Z,44.50
2017-08-29T08:02:02.080Z,47.70
2017-08-29T08:04:29.795Z,53.30
2017-08-29T08:06:56.752Z,53.40
2017-08-29T08:09:23.720Z,53.40
2017-08-29T08:11:50.741Z,53.50
2017-08-29T08:14:17.684Z,51.70
2017-08-29T08:16:44.628Z,50.50
2017-08-29T08:19:11.608Z,51.70
2017-08-29T08:21:38.516Z,51.00
2017-08-29T08:24:05.425Z,51.30
2017-08-29T08:26:32.407Z,47.50
2017-08-29T08:28:59.462Z,47.30
2017-08-29T08:31:26.432Z,46.30
2017-08-29T08:33:53.460Z,45.40
2017-08-29T08:36:20.559Z,44.20
2017-08-29T08:38:49.799Z,42.20
2017-08-29T08:41:16.875Z,42.10
2017-08-29T08:43:44.630Z,42.50
2017-08-29T08:46:18.091Z,41.00
2017-08-29T08:48:45.089Z,40.50
2017-08-29T08:51:12.028Z,38.70
2017-08-29T08:53:38.883Z,37.10
2017-08-29T08:56:05.830Z,34.70
2017-08-29T08:58:32.756Z,33.70
2017-08-29T09:00:59.693Z,32.90
2017-08-29T09:03:26.602Z,31.90
2017-08-29T09:05:53.544Z,32.30
2017-08-29T09:08:20.494Z,30.70
2017-08-29T09:10:47.411Z,30.00
2017-08-29T09:13:14.331Z,28.40
2017-08-29T09:15:42.168Z,28.30
2017-08-29T09:18:09.053Z,29.60
2017-08-29T09:20:36.015Z,27.60
2017-08-29T09:23:02.979Z,27.50
2017-08-29T09:25:29.890Z,26.10
2017-08-29T09:27:56.782Z,26.50
2017-08-29T09:30:23.736Z,27.30
2017-08-29T09:32:50.689Z,27.20
2017-08-29T09:35:17.654Z,27.30
2017-08-29T09:37:44.545Z,27.10
2017-08-29T09:40:11.400Z,28.00
2017-08-29T09:42:38.417Z,28.20
2017-08-29T09:45:05.341Z,28.00
2017-08-29T09:47:32.331Z,28.70
2017-08-29T09:49:59.976Z,30.10
2017-08-29T09:52:26.883Z,30.10
2017-08-29T09:54:53.804Z,32.20
2017-08-29T09:57:20.806Z,32.00
2017-08-29T09:59:47.760Z,34.50
2017-08-29T10:02:14.636Z,35.00
2017-08-29T10:04:42.340Z,35.10
2017-08-29T10:07:09.302Z,35.10
2017-08-29T10:09:36.209Z,32.00
2017-08-29T10:12:03.202Z,36.30
2017-08-29T10:14:30.113Z,37.00
2017-08-29T10:16:57.074Z,34.20
2017-08-29T10:19:23.990Z,37.30
2017-08-29T10:21:51.016Z,38.60
2017-08-29T10:24:17.972Z,36.40
2017-08-29T10:26:44.896Z,37.80
2017-08-29T10:29:12.081Z,37.00
2017-08-29T10:31:39.032Z,39.50
2017-08-29T10:34:06.037Z,37.50
2017-08-29T10:36:33.910Z,37.90
2017-08-29T10:39:01.013Z,37.20
2017-08-29T10:41:28.050Z,36.30
2017-08-29T10:43:55.033Z,38.30
2017-08-29T10:46:22.001Z,40.00
2017-08-29T10:48:48.997Z,37.50
2017-08-29T10:51:16.073Z,37.10
2017-08-29T10:53:43.217Z,37.50
2017-08-29T10:56:10.156Z,38.10
2017-08-29T10:58:37.111Z,37.10
2017-08-29T11:01:04.087Z,38.80
2017-08-29T11:03:31.035Z,38.80
2017-08-29T11:05:59.241Z,38.40
2017-08-29T11:08:26.189Z,36.20
2017-08-29T11:10:53.368Z,36.70
2017-08-29T11:13:20.355Z,36.70
2017-08-29T11:15:47.256Z,37.00
2017-08-29T11:18:14.265Z,36.60
2017-08-29T11:20:41.295Z,37.40
2017-08-29T11:23:08.305Z,36.60
2017-08-29T11:25:35.373Z,36.50
2017-08-29T11:28:07.008Z,36.40
2017-08-29T11:30:34.121Z,37.50
2017-08-29T11:33:01.089Z,38.10
2017-08-29T11:35:28.097Z,36.70
2017-08-29T11:37:55.105Z,37.30
2017-08-29T11:40:22.096Z,36.30
2017-08-29T11:42:49.158Z,35.40
2017-08-29T11:45:24.041Z,36.50
2017-08-29T11:48:03.136Z,36.60
2017-08-29T11:50:32.229Z,37.10
2017-08-29T11:53:09.661Z,38.40
2017-08-29T11:55:37.003Z,38.00
2017-08-29T11:58:12.171Z,36.80
2017-08-29T12:00:41.812Z,37.10
2017-08-29T12:03:09.644Z,39.50
2017-08-29T12:05:38.110Z,39.50
2017-08-29T12:08:05.105Z,36.90
2017-08-29T12:10:32.186Z,39.10
2017-08-29T12:12:59.082Z,37.90
2017-08-29T12:15:26.065Z,37.60
2017-08-29T12:17:53.075Z,38.00
2017-08-29T12:20:19.975Z,38.20
2017-08-29T12:22:46.876Z,37.70
2017-08-29T12:25:13.813Z,37.20
2017-08-29T12:27:40.699Z,36.20
2017-08-29T12:30:07.705Z,37.60
2017-08-29T12:32:34.607Z,37.80
2017-08-29T12:35:01.516Z,36.00
2017-08-29T12:37:28.475Z,37.60
2017-08-29T12:39:55.428Z,36.50
2017-08-29T12:42:22.484Z,36.20
2017-08-29T12:44:49.440Z,34.80
2017-08-29T12:47:16.372Z,35.80
2017-08-29T12:49:43.364Z,35.80
2017-08-29T12:52:20.843Z,37.80
2017-08-29T12:54:47.964Z,38.60
2017-08-29T12:57:14.863Z,35.10
2017-08-29T12:59:41.823Z,35.30
2017-08-29T13:02:09.509Z,36.70
2017-08-29T13:04:36.483Z,36.00
2017-08-29T13:07:03.453Z,35.70
2017-08-29T13:09:30.354Z,34.70
2017-08-29T13:11:57.372Z,35.40
2017-08-29T13:14:25.104Z,35.50
2017-08-29T13:16:52.009Z,35.40
2017-08-29T13:19:19.024Z,35.70
2017-08-29T13:21:45.982Z,36.00
2017-08-29T13:24:13.709Z,35.50
2017-08-29T13:26:40.668Z,34.90
2017-08-29T13:29:07.637Z,35.80
2017-08-29T13:31:35.315Z,36.20
2017-08-29T13:34:02.215Z,36.00
2017-08-29T13:36:29.089Z,35.50
2017-08-29T13:38:56.787Z,37.60
2017-08-29T13:41:23.677Z,37.50
2017-08-29T13:43:50.763Z,36.60
2017-08-29T13:46:18.460Z,37.60
2017-08-29T13:48:45.418Z,37.60
2017-08-29T13:51:12.401Z,37.10
2017-08-29T13:53:39.299Z,37.40
2017-08-29T13:56:06.362Z,38.00
2017-08-29T13:58:33.400Z,38.10
2017-08-29T14:01:00.263Z,37.30
2017-08-29T14:03:27.242Z,37.30
2017-08-29T14:05:54.882Z,38.00
2017-08-29T14:08:21.773Z,37.90
2017-08-29T14:10:48.728Z,38.00
2017-08-29T14:13:15.617Z,37.70
2017-08-29T14:15:42.575Z,38.40
2017-08-29T14:18:09.457Z,38.10
2017-08-29T14:20:36.373Z,37.80
2017-08-29T14:23:04.088Z,39.60
2017-08-29T14:25:30.978Z,39.30
2017-08-29T14:27:57.953Z,38.80
2017-08-29T14:30:24.835Z,38.30
2017-08-29T14:32:51.783Z,39.10
2017-08-29T14:35:18.662Z,38.30
2017-08-29T14:37:45.517Z,38.50
2017-08-29T14:40:13.212Z,39.30
2017-08-29T14:42:40.114Z,39.30
2017-08-29T14:45:07.158Z,39.30
2017-08-29T14:47:46.017Z,39.00
2017-08-29T14:50:13.007Z,38.80
2017-08-29T14:52:39.948Z,39.60
2017-08-29T14:55:06.961Z,39.60
2017-08-29T14:57:34.081Z,40.10
2017-08-29T15:00:01.050Z,41.10
2017-08-29T15:02:28.034Z,40.70
2017-08-29T15:04:55.176Z,41.30
2017-08-29T15:07:22.116Z,43.00
2017-08-29T15:09:48.987Z,41.60
2017-08-29T15:12:15.983Z,41.00
2017-08-29T15:14:42.883Z,40.10
2017-08-29T15:17:09.853Z,40.30
2017-08-29T15:19:36.804Z,41.50
2017-08-29T15:22:04.426Z,40.00
2017-08-29T15:24:31.380Z,39.60
2017-08-29T15:26:58.362Z,39.80
2017-08-29T15:29:25.293Z,40.00
2017-08-29T15:31:52.197Z,39.90
2017-08-29T15:34:19.162Z,40.30
2017-08-29T15:36:46.069Z,39.30
2017-08-29T15:39:12.979Z,39.00
2017-08-29T15:41:39.944Z,39.80
2017-08-29T15:44:07.676Z,41.10
2017-08-29T15:46:34.816Z,40.50
2017-08-29T15:49:01.798Z,41.00
2017-08-29T15:51:29.496Z,40.00
2017-08-29T15:53:56.484Z,39.60
2017-08-29T15:56:23.444Z,39.90
2017-08-29T15:58:50.445Z,39.20
2017-08-29T16:01:17.342Z,39.70
2017-08-29T16:03:45.091Z,40.00
2017-08-29T16:06:12.017Z,39.90
2017-08-29T16:08:39.025Z,40.80
2017-08-29T16:11:06.234Z,39.80
2017-08-29T16:13:33.238Z,39.90
2017-08-29T16:16:00.210Z,39.90
2017-08-29T16:18:27.114Z,39.30
2017-08-29T16:20:55.160Z,39.40
2017-08-29T16:23:22.785Z,39.10
2017-08-29T16:25:49.970Z,39.10
2017-08-29T16:28:17.312Z,39.40
2017-08-29T16:30:44.254Z,39.80
2017-08-29T16:33:15.787Z,40.50
2017-08-29T16:35:43.006Z,39.40
2017-08-29T16:38:10.647Z,38.80
2017-08-29T16:40:44.968Z,38.70
2017-08-29T16:43:18.015Z,40.60
2017-08-29T16:45:46.288Z,39.90
2017-08-29T16:48:17.438Z,41.00
2017-08-29T16:50:47.520Z,39.50
2017-08-29T16:53:18.044Z,40.50
2017-08-29T16:55:56.464Z,41.30
2017-08-29T16:58:24.451Z,41.20
2017-08-29T17:00:51.817Z,40.70
2017-08-29T17:03:27.633Z,41.40
2017-08-29T17:06:13.857Z,42.40
2017-08-29T17:08:55.486Z,41.90
2017-08-29T17:11:37.970Z,42.00
2017-08-29T17:14:05.387Z,42.00
2017-08-29T17:16:33.113Z,49.40
2017-08-29T17:19:00.031Z,48.80
2017-08-29T17:21:26.976Z,49.00
2017-08-29T17:23:53.995Z,48.90
2017-08-29T17:26:20.915Z,47.50
2017-08-29T17:28:47.882Z,50.80
2017-08-29T17:31:15.599Z,52.80
2017-08-29T17:33:42.492Z,52.80
2017-08-29T17:36:10.175Z,52.40
2017-08-29T17:38:37.081Z,52.70
2017-08-29T17:41:03.953Z,54.10
2017-08-29T17:43:31.020Z,55.10
2017-08-29T17:45:57.877Z,54.10
2017-08-29T17:48:24.914Z,54.30
2017-08-29T17:50:53.471Z,55.20
2017-08-29T17:53:22.055Z,55.10
2017-08-29T17:55:50.776Z,54.70
2017-08-29T17:58:27.153Z,56.60
2017-08-29T18:00:55.533Z,57.10
2017-08-29T18:03:22.461Z,57.00
2017-08-29T18:05:49.442Z,57.30
2017-08-29T18:08:17.075Z,58.00
2017-08-29T18:10:44.024Z,58.00
2017-08-29T18:13:10.892Z,58.50
2017-08-29T18:15:37.853Z,59.30
2017-08-29T18:18:05.137Z,59.60
2017-08-29T18:20:41.675Z,60.00
2017-08-29T18:25:54.482Z,60.10
2017-08-29T18:28:31.386Z,60.50
2017-08-29T18:31:01.146Z,62.20
2017-08-29T18:33:28.287Z,61.50
2017-08-29T18:35:55.184Z,62.50
2017-08-29T18:38:22.108Z,61.00
2017-08-29T18:40:49.063Z,60.70
2017-08-29T18:43:15.983Z,59.50
2017-08-29T18:45:43.659Z,60.40
2017-08-29T18:48:11.267Z,61.20
2017-08-29T18:50:38.202Z,61.20
2017-08-29T18:53:05.132Z,62.10
2017-08-29T18:55:32.077Z,62.00
2017-08-29T18:57:59.020Z,62.10
2017-08-29T19:00:26.076Z,62.30
2017-08-29T19:02:52.969Z,62.20
2017-08-29T19:05:22.906Z,62.20
2017-08-29T19:07:51.274Z,60.40
2017-08-29T19:10:19.444Z,60.20
2017-08-29T19:12:46.361Z,61.00
2017-08-29T19:15:16.984Z,61.00
2017-08-29T19:17:46.952Z,61.80
2017-08-29T19:20:14.162Z,61.80
2017-08-29T19:22:41.059Z,61.90
2017-08-29T19:25:09.605Z,62.30
2017-08-29T19:27:36.554Z,62.30
2017-08-29T19:30:03.536Z,62.70
2017-08-29T19:32:31.148Z,63.20
2017-08-29T19:35:16.363Z,63.20
2017-08-29T19:40:36.050Z,63.90
2017-08-29T19:43:03.212Z,64.20
2017-08-29T19:45:30.906Z,64.30
2017-08-29T19:47:57.806Z,64.80
2017-08-29T19:50:24.714Z,64.40
2017-08-29T19:52:51.669Z,64.40
2017-08-29T19:55:18.608Z,64.20
2017-08-29T19:57:45.524Z,64.50
2017-08-29T20:00:12.512Z,64.30
2017-08-29T20:02:39.426Z,64.30
2017-08-29T20:05:06.404Z,64.70
2017-08-29T20:07:33.332Z,64.90
2017-08-29T20:10:00.266Z,65.10
2017-08-29T20:12:27.205Z,65.10
2017-08-29T20:14:54.079Z,65.10
2017-08-29T20:17:20.945Z,64.90
2017-08-29T20:19:47.892Z,64.70
2017-08-29T20:22:14.861Z,65.30
2017-08-29T20:24:44.212Z,65.90
2017-08-29T20:27:12.036Z,66.10
2017-08-29T20:29:41.375Z,67.10
2017-08-29T20:32:12.593Z,66.40
2017-08-29T20:34:41.473Z,66.60
2017-08-29T20:37:10.972Z,66.70
2017-08-29T20:39:42.689Z,66.70
2017-08-29T20:42:12.621Z,66.70
2017-08-29T20:44:39.849Z,66.80
2017-08-29T20:47:11.546Z,66.70
2017-08-29T20:49:38.830Z,66.40
2017-08-29T20:52:09.911Z,66.20
2017-08-29T20:54:38.361Z,66.20
2017-08-29T20:57:05.306Z,66.30
2017-08-29T20:59:32.204Z,66.60
2017-08-29T21:02:06.227Z,66.80
2017-08-29T21:04:33.880Z,66.80
2017-08-29T21:07:00.849Z,67.20
2017-08-29T21:09:27.786Z,66.80
2017-08-29T21:12:04.327Z,66.70
2017-08-29T21:14:43.835Z,67.00
2017-08-29T21:17:23.509Z,67.20
2017-08-29T21:19:53.021Z,67.20
2017-08-29T21:22:19.896Z,67.00
2017-08-29T21:24:59.049Z,67.80
2017-08-29T21:27:26.686Z,67.40
2017-08-29T21:30:03.318Z,67.40
2017-08-29T21:32:32.824Z,67.60
2017-08-29T21:35:11.243Z,67.40
2017-08-29T21:37:40.698Z,67.50
2017-08-29T21:40:20.608Z,68.00
2017-08-29T21:42:48.385Z,68.30
2017-08-29T21:45:15.941Z,68.60
2017-08-29T21:47:45.979Z,68.50
2017-08-29T21:50:16.186Z,68.10
2017-08-29T21:52:45.443Z,68.20
2017-08-29T21:55:14.613Z,68.90
2017-08-29T21:57:41.647Z,69.10
2017-08-29T22:00:08.537Z,69.20
2017-08-29T22:02:35.461Z,69.40
2017-08-29T22:05:03.176Z,70.10
2017-08-29T22:07:30.111Z,70.10
2017-08-29T22:09:58.364Z,70.40
2017-08-29T22:12:29.080Z,71.10
2017-08-29T22:14:56.404Z,71.60
2017-08-29T22:17:23.414Z,72.00
2017-08-29T22:19:50.305Z,72.20
2017-08-29T22:22:19.195Z,72.20
2017-08-29T22:24:48.080Z,72.20
2017-08-29T22:27:15.028Z,72.00
2017-08-29T22:29:41.951Z,72.10
2017-08-29T22:32:09.024Z,72.40
2017-08-29T22:34:35.955Z,72.80
2017-08-29T22:37:02.919Z,73.60
2017-08-29T22:39:29.800Z,73.70
2017-08-29T22:41:57.471Z,73.40
2017-08-29T22:44:24.332Z,73.40
2017-08-29T22:46:51.267Z,73.40
2017-08-29T22:49:18.444Z,73.10
2017-08-29T22:51:45.328Z,73.20
2017-08-29T22:54:12.255Z,73.10
2017-08-29T22:56:39.159Z,72.70
2017-08-29T22:59:06.019Z,72.90
2017-08-29T23:01:32.956Z,72.70
2017-08-29T23:03:59.913Z,72.80
2017-08-29T23:06:26.886Z,72.90
2017-08-29T23:08:53.788Z,72.80
2017-08-29T23:11:20.732Z,73.00
2017-08-29T23:13:47.600Z,73.00
2017-08-29T23:16:14.537Z,73.20
2017-08-29T23:18:41.474Z,73.50
2017-08-29T23:21:08.362Z,73.70
2017-08-29T23:23:35.323Z,74.10
2017-08-29T23:26:02.273Z,73.90
2017-08-29T23:28:29.140Z,73.80
2017-08-29T23:30:56.852Z,73.50
2017-08-29T23:33:24.582Z,73.40
2017-08-29T23:35:51.445Z,73.50
2017-08-29T23:38:18.377Z,73.60
2017-08-29T23:40:45.343Z,73.90
2017-08-29T23:43:12.235Z,74.10
2017-08-29T23:45:39.907Z,74.50
2017-08-29T23:48:06.793Z,74.50
2017-08-29T23:50:33.845Z,74.50
2017-08-29T23:53:00.787Z,74.40
2017-08-29T23:55:27.671Z,74.50
2017-08-29T23:57:54.622Z,74.70
